createdAt,value
2023-03-03T00:01:55.535Z,89.88
2023-03-03T00:04:22.496Z,101.25
2023-03-03T00:06:49.357Z,139.18
2023-03-03T00:09:16.870Z,101.88
2023-03-03T00:11:43.744Z,155.25
2023-03-03T00:14:28.192Z,80.13
2023-03-03T00:16:57.178Z,112.95
2023-03-03T00:19:24.465Z,126.28
2023-03-03T00:21:58.598Z,98.93
2023-03-03T00:24:37.663Z,112.47
2023-03-03T00:27:34.403Z,113.32
2023-03-03T00:30:01.897Z,126.90
2023-03-03T00:32:55.923Z,104.53
2023-03-03T00:35:30.451Z,100.40
2023-03-03T00:38:10.770Z,114.18
2023-03-03T00:40:40.334Z,118.82
2023-03-03T00:43:36.076Z,97.45
2023-03-03T00:46:03.627Z,88.75
2023-03-03T00:48:36.658Z,92.95
2023-03-03T00:51:29.633Z,91.70
2023-03-03T00:53:59.627Z,97.88
2023-03-03T00:56:27.867Z,95.60
2023-03-03T00:58:54.901Z,121.63
2023-03-03T01:01:25.498Z,94.50
2023-03-03T01:03:53.755Z,117.45
2023-03-03T01:06:20.703Z,110.45
2023-03-03T01:08:47.617Z,99.03
2023-03-03T01:11:21.467Z,94.65
2023-03-03T01:13:51.436Z,88.57
2023-03-03T01:16:19.302Z,85.32
2023-03-03T01:18:46.751Z,77.20
2023-03-03T01:21:13.736Z,98.80
2023-03-03T01:23:40.845Z,71.50
2023-03-03T01:26:08.542Z,80.78
2023-03-03T01:28:35.501Z,90.50
2023-03-03T01:31:04.846Z,87.57
2023-03-03T01:33:34.384Z,86.18
2023-03-03T01:36:02.066Z,87.13
2023-03-03T01:38:29.255Z,95.22
2023-03-03T01:40:59.404Z,102.57
2023-03-03T01:43:32.043Z,95.68
2023-03-03T01:45:58.924Z,101.00
2023-03-03T01:48:34.734Z,106.50
2023-03-03T01:51:08.413Z,84.18
2023-03-03T01:53:45.126Z,101.32
2023-03-03T01:56:12.406Z,91.93
2023-03-03T01:58:48.826Z,89.43
2023-03-03T02:01:22.039Z,88.97
2023-03-03T02:03:49.681Z,82.38
2023-03-03T02:06:22.351Z,77.80
2023-03-03T02:08:55.536Z,91.00
2023-03-03T02:11:23.781Z,93.10
2023-03-03T02:13:51.035Z,95.57
2023-03-03T02:16:18.605Z,88.78
2023-03-03T02:18:45.993Z,93.68
2023-03-03T02:21:17.849Z,83.35
2023-03-03T02:24:15.757Z,92.88
2023-03-03T02:26:45.468Z,96.88
2023-03-03T02:29:12.359Z,102.78
2023-03-03T02:31:41.494Z,107.25
2023-03-03T02:34:08.604Z,93.55
2023-03-03T02:36:38.823Z,84.25
2023-03-03T02:39:27.566Z,93.82
2023-03-03T02:42:08.036Z,87.53
2023-03-03T02:44:40.961Z,94.65
2023-03-03T02:47:08.443Z,95.30
2023-03-03T02:49:37.362Z,91.13
2023-03-03T02:52:09.961Z,95.70
2023-03-03T02:54:39.044Z,90.85
2023-03-03T02:57:06.478Z,94.63
2023-03-03T02:59:33.475Z,82.20
2023-03-03T03:02:08.836Z,77.80
2023-03-03T03:04:36.070Z,79.38
2023-03-03T03:07:03.628Z,81.97
2023-03-03T03:09:32.907Z,73.95
2023-03-03T03:12:02.395Z,64.28
2023-03-03T03:14:31.637Z,68.82
2023-03-03T03:16:59.192Z,67.45
2023-03-03T03:19:28.271Z,71.22
2023-03-03T03:21:55.517Z,75.13
2023-03-03T03:24:22.569Z,78.80
2023-03-03T03:26:56.122Z,66.60
2023-03-03T03:29:24.339Z,73.70
2023-03-03T03:31:51.281Z,75.10
2023-03-03T03:34:18.408Z,66.30
2023-03-03T03:36:46.815Z,71.15
2023-03-03T03:39:15.089Z,63.33
2023-03-03T03:41:45.896Z,67.07
2023-03-03T03:44:12.785Z,64.47
2023-03-03T03:46:39.857Z,67.03
2023-03-03T03:49:07.106Z,54.53
2023-03-03T03:51:35.582Z,64.18
2023-03-03T03:54:03.132Z,58.83
2023-03-03T03:56:31.223Z,68.28
2023-03-03T03:59:01.011Z,58.70
2023-03-03T04:01:28.526Z,66.80
2023-03-03T04:03:56.994Z,59.22
2023-03-03T04:06:25.136Z,63.35
2023-03-03T04:08:52.808Z,63.50
2023-03-03T04:11:22.310Z,63.83
2023-03-03T04:13:49.316Z,64.90
2023-03-03T04:16:16.667Z,71.55
2023-03-03T04:18:46.457Z,67.72
2023-03-03T04:21:16.339Z,73.28
2023-03-03T04:23:44.956Z,72.88
2023-03-03T04:26:12.019Z,61.22
2023-03-03T04:28:39.660Z,63.13
2023-03-03T04:31:07.704Z,68.47
2023-03-03T04:33:34.767Z,69.75
2023-03-03T04:36:03.265Z,55.85
2023-03-03T04:38:31.206Z,59.05
2023-03-03T04:40:58.292Z,60.90
2023-03-03T04:43:28.095Z,58.13
2023-03-03T04:45:56.373Z,60.33
2023-03-03T04:48:23.643Z,60.00
2023-03-03T04:50:50.748Z,60.70
2023-03-03T04:53:17.799Z,55.20
2023-03-03T04:55:44.905Z,60.30
2023-03-03T04:58:12.030Z,62.33
2023-03-03T05:00:39.840Z,67.43
2023-03-03T05:03:11.813Z,68.53
2023-03-03T05:05:41.203Z,63.72
2023-03-03T05:08:08.159Z,61.45
2023-03-03T05:10:35.289Z,63.03
2023-03-03T05:13:02.198Z,63.17
2023-03-03T05:15:29.609Z,62.45
2023-03-03T05:17:57.149Z,58.72
2023-03-03T05:20:25.551Z,63.50
2023-03-03T05:22:52.676Z,61.80
2023-03-03T05:25:21.883Z,71.05
2023-03-03T05:27:49.118Z,59.38
2023-03-03T05:30:16.127Z,63.63
2023-03-03T05:32:43.569Z,62.00
2023-03-03T05:35:10.716Z,59.20
2023-03-03T05:37:40.058Z,57.92
2023-03-03T05:40:08.104Z,61.45
2023-03-03T05:42:35.252Z,70.25
2023-03-03T05:45:02.274Z,67.85
2023-03-03T05:47:29.639Z,73.82
2023-03-03T05:49:56.575Z,72.50
2023-03-03T05:52:24.596Z,66.93
2023-03-03T05:54:51.480Z,66.30
2023-03-03T05:57:18.516Z,74.93
2023-03-03T05:59:45.511Z,75.60
2023-03-03T06:02:12.920Z,71.88
2023-03-03T06:04:40.051Z,76.15
2023-03-03T06:07:07.132Z,72.43
2023-03-03T06:09:34.098Z,76.95
2023-03-03T06:12:02.383Z,71.72
2023-03-03T06:14:29.540Z,78.28
2023-03-03T06:16:57.829Z,77.97
2023-03-03T06:19:25.227Z,71.93
2023-03-03T06:21:52.071Z,70.32
2023-03-03T06:24:19.069Z,70.47
2023-03-03T06:26:46.030Z,73.18
2023-03-03T06:29:15.484Z,63.78
2023-03-03T06:31:43.226Z,79.93
2023-03-03T06:34:19.749Z,92.65
2023-03-03T06:36:47.067Z,78.63
2023-03-03T06:39:13.975Z,81.18
2023-03-03T06:41:41.089Z,80.75
2023-03-03T06:44:12.605Z,89.30
2023-03-03T06:46:48.376Z,89.65
2023-03-03T06:49:25.826Z,76.80
2023-03-03T06:51:54.595Z,70.63
2023-03-03T06:54:37.335Z,80.60
2023-03-03T06:57:28.901Z,70.88
2023-03-03T07:00:22.815Z,68.53
2023-03-03T07:03:02.025Z,56.13
2023-03-03T07:05:30.030Z,64.40
2023-03-03T07:08:00.540Z,70.00
2023-03-03T07:10:31.745Z,59.75
2023-03-03T07:13:26.403Z,56.57
2023-03-03T07:15:57.135Z,58.67
2023-03-03T07:18:52.419Z,55.72
2023-03-03T07:21:39.390Z,52.97
2023-03-03T07:24:32.100Z,58.03
2023-03-03T07:27:29.656Z,56.55
2023-03-03T07:30:29.540Z,52.42
2023-03-03T07:32:59.425Z,52.38
2023-03-03T07:35:45.158Z,59.05
2023-03-03T07:38:54.504Z,58.60
2023-03-03T07:41:24.966Z,64.53
2023-03-03T07:43:56.028Z,62.08
2023-03-03T07:46:24.987Z,57.03
2023-03-03T07:48:53.805Z,55.13
2023-03-03T07:51:27.721Z,51.80
2023-03-03T07:54:37.614Z,54.92
2023-03-03T07:57:27.186Z,52.72
2023-03-03T08:00:28.111Z,48.10
2023-03-03T08:03:00.636Z,52.85
2023-03-03T08:05:38.788Z,48.78
2023-03-03T08:08:31.097Z,44.70
2023-03-03T08:11:01.399Z,43.05
2023-03-03T08:13:40.100Z,46.92
2023-03-03T08:16:10.427Z,50.25
2023-03-03T08:18:46.935Z,40.90
2023-03-03T08:21:24.825Z,40.67
2023-03-03T08:24:00.832Z,41.38
2023-03-03T08:26:30.101Z,39.03
2023-03-03T08:28:57.119Z,35.53
2023-03-03T08:31:39.928Z,40.53
2023-03-03T08:34:07.785Z,32.28
2023-03-03T08:36:38.598Z,36.92
2023-03-03T08:39:07.169Z,35.33
2023-03-03T08:41:34.692Z,35.53
2023-03-03T08:44:01.613Z,36.03
2023-03-03T08:46:39.379Z,32.08
2023-03-03T08:49:07.437Z,36.28
2023-03-03T08:51:37.990Z,31.90
2023-03-03T08:54:27.920Z,33.25
2023-03-03T08:57:07.105Z,32.47
2023-03-03T08:59:38.886Z,34.60
2023-03-03T09:08:24.102Z,27.90
2023-03-03T09:10:51.518Z,28.02
2023-03-03T09:13:23.075Z,30.85
2023-03-03T09:16:07.434Z,29.55
2023-03-03T09:19:21.984Z,25.45
2023-03-03T09:21:55.118Z,24.27
2023-03-03T09:24:34.668Z,22.88
2023-03-03T09:27:02.950Z,23.27
2023-03-03T09:29:39.493Z,20.27
2023-03-03T09:32:33.778Z,19.42
2023-03-03T09:39:39.467Z,21.02
2023-03-03T09:42:33.551Z,18.63
2023-03-03T09:50:23.606Z,18.50
2023-03-03T09:53:36.717Z,15.38
2023-03-03T09:56:19.988Z,20.52
2023-03-03T10:02:34.482Z,18.88
2023-03-03T10:06:06.509Z,15.95
2023-03-03T10:09:38.639Z,16.25
2023-03-03T10:13:02.715Z,17.50
2023-03-03T10:23:12.959Z,13.57
2023-03-03T10:25:45.520Z,16.10
2023-03-03T10:28:56.229Z,13.40
2023-03-03T10:31:44.778Z,12.68
2023-03-03T10:34:49.745Z,15.27
2023-03-03T10:37:24.447Z,17.65
2023-03-03T10:40:00.151Z,14.23
2023-03-03T10:43:02.922Z,15.57
2023-03-03T10:45:59.075Z,11.20
2023-03-03T10:49:03.927Z,10.10
2023-03-03T10:51:40.447Z,15.02
2023-03-03T10:54:44.585Z,12.65
2023-03-03T10:57:30.334Z,14.38
2023-03-03T11:00:39.314Z,12.43
2023-03-03T11:03:38.255Z,11.60
2023-03-03T11:06:18.840Z,10.35
2023-03-03T11:09:06.687Z,11.07
2023-03-03T11:12:05.564Z,11.55
2023-03-03T11:15:46.931Z,12.65
2023-03-03T11:19:09.884Z,10.07
2023-03-03T11:22:21.760Z,12.90
2023-03-03T11:25:16.135Z,14.35
2023-03-03T11:28:13.917Z,13.85
2023-03-03T11:31:10.559Z,13.35
2023-03-03T11:34:08.970Z,10.82
2023-03-03T11:37:14.732Z,11.32
2023-03-03T11:39:44.832Z,12.57
2023-03-03T11:42:50.855Z,12.45
2023-03-03T11:45:26.801Z,12.52
2023-03-03T11:48:18.531Z,15.30
2023-03-03T11:51:00.959Z,13.88
2023-03-03T11:53:43.399Z,13.25
2023-03-03T11:56:28.013Z,12.63
2023-03-03T11:59:36.444Z,11.30
2023-03-03T12:02:46.318Z,14.25
2023-03-03T12:05:52.248Z,15.02
2023-03-03T12:08:45.884Z,11.48
2023-03-03T12:11:31.081Z,12.63
2023-03-03T12:14:48.772Z,14.20
2023-03-03T12:17:24.782Z,9.55
2023-03-03T12:20:17.896Z,11.05
2023-03-03T12:22:57.782Z,8.80
2023-03-03T12:26:03.777Z,11.48
2023-03-03T12:28:46.979Z,9.02
2023-03-03T12:31:53.970Z,10.98
2023-03-03T12:34:37.546Z,8.73
2023-03-03T12:37:16.817Z,9.73
2023-03-03T12:39:49.999Z,8.57
2023-03-03T12:42:50.477Z,9.93
2023-03-03T12:45:47.936Z,10.93
2023-03-03T12:48:41.367Z,10.85
2023-03-03T12:51:42.086Z,9.77
2023-03-03T12:54:50.206Z,10.18
2023-03-03T12:57:37.602Z,9.05
2023-03-03T13:00:11.489Z,8.65
2023-03-03T13:03:10.146Z,12.00
2023-03-03T13:06:03.976Z,12.57
2023-03-03T13:08:57.255Z,13.98
2023-03-03T13:11:32.373Z,11.90
2023-03-03T13:14:49.042Z,10.10
2023-03-03T13:17:34.433Z,13.15
2023-03-03T13:20:38.481Z,11.25
2023-03-03T13:23:38.224Z,14.10
2023-03-03T13:26:20.442Z,15.48
2023-03-03T13:29:19.551Z,13.80
2023-03-03T13:32:22.309Z,14.23
2023-03-03T13:35:40.445Z,12.77
2023-03-03T13:38:14.626Z,16.63
2023-03-03T13:41:00.063Z,13.32
2023-03-03T13:43:57.481Z,16.48
2023-03-03T13:46:46.733Z,17.75
2023-03-03T13:49:31.114Z,17.23
2023-03-03T13:52:13.594Z,15.00
2023-03-03T13:55:21.617Z,15.80
2023-03-03T13:58:02.592Z,12.52
2023-03-03T14:00:40.522Z,12.30
2023-03-03T14:03:39.540Z,13.43
2023-03-03T14:06:22.291Z,13.30
2023-03-03T14:09:22.647Z,13.30
2023-03-03T14:12:03.916Z,15.70
2023-03-03T14:15:11.395Z,12.52
2023-03-03T14:18:08.566Z,15.63
2023-03-03T14:20:47.169Z,13.30
2023-03-03T14:23:39.476Z,14.65
2023-03-03T14:26:12.032Z,13.73
2023-03-03T14:28:48.530Z,14.63
2023-03-03T14:31:43.085Z,12.77
2023-03-03T14:34:35.500Z,13.13
2023-03-03T14:37:27.796Z,14.43
2023-03-03T14:40:16.418Z,14.32
2023-03-03T14:42:52.282Z,13.50
2023-03-03T14:45:37.917Z,15.80
2023-03-03T14:48:27.174Z,14.32
2023-03-03T14:51:13.060Z,15.73
2023-03-03T14:53:55.976Z,15.20
2023-03-03T14:56:32.625Z,14.27
2023-03-03T14:59:24.833Z,17.30
2023-03-03T15:02:20.679Z,13.88
2023-03-03T15:04:52.607Z,17.67
2023-03-03T15:07:37.342Z,12.75
2023-03-03T15:10:07.746Z,15.23
2023-03-03T15:12:39.669Z,12.50
2023-03-03T15:15:06.993Z,11.13
2023-03-03T15:17:41.408Z,11.48
2023-03-03T15:20:37.092Z,11.32
2023-03-03T15:23:39.074Z,13.38
2023-03-03T15:26:38.350Z,12.27
2023-03-03T15:29:34.727Z,14.65
2023-03-03T15:32:34.482Z,14.13
2023-03-03T15:35:37.615Z,16.00
2023-03-03T15:38:34.261Z,12.15
2023-03-03T15:41:10.623Z,16.65
2023-03-03T15:43:52.964Z,16.20
2023-03-03T15:47:03.437Z,14.73
2023-03-03T15:50:06.477Z,20.52
2023-03-03T15:52:50.829Z,17.30
2023-03-03T15:56:16.342Z,16.60
2023-03-03T15:59:07.272Z,20.25
2023-03-03T16:02:19.012Z,23.45
2023-03-03T16:04:55.796Z,22.80
2023-03-03T16:07:39.284Z,22.90
2023-03-03T16:10:35.959Z,23.00
2023-03-03T16:13:23.494Z,29.58
2023-03-03T16:16:04.309Z,26.00
2023-03-03T16:18:43.632Z,26.38
2023-03-03T16:21:51.251Z,32.33
2023-03-03T16:25:08.007Z,25.83
2023-03-03T16:27:45.310Z,26.95
2023-03-03T16:30:28.203Z,31.95
2023-03-03T16:33:16.953Z,30.63
2023-03-03T16:36:09.787Z,34.28
2023-03-03T16:38:36.619Z,41.67
2023-03-03T16:41:12.150Z,38.13
2023-03-03T16:44:16.826Z,38.42
2023-03-03T16:46:49.314Z,33.25
2023-03-03T16:49:48.207Z,34.55
2023-03-03T16:52:43.771Z,36.35
2023-03-03T16:55:41.478Z,36.17
2023-03-03T16:58:26.085Z,30.73
2023-03-03T17:01:17.783Z,34.08
2023-03-03T17:04:15.265Z,36.97
2023-03-03T17:06:52.557Z,32.13
2023-03-03T17:09:53.147Z,38.15
2023-03-03T17:12:54.127Z,36.03
2023-03-03T17:16:03.072Z,41.72
2023-03-03T17:19:13.051Z,35.58
2023-03-03T17:22:31.747Z,37.83
2023-03-03T17:25:19.944Z,40.47
2023-03-03T17:28:06.114Z,40.10
2023-03-03T17:30:42.427Z,34.10
2023-03-03T17:34:12.654Z,39.45
2023-03-03T17:37:16.552Z,38.45
2023-03-03T17:40:17.761Z,39.78
2023-03-03T17:42:56.041Z,36.47
2023-03-03T17:45:26.604Z,41.08
2023-03-03T17:47:56.524Z,39.13
2023-03-03T17:51:23.117Z,36.83
2023-03-03T17:54:12.336Z,46.53
2023-03-03T17:57:10.234Z,43.42
2023-03-03T17:59:58.097Z,41.55
2023-03-03T18:02:54.970Z,39.55
2023-03-03T18:05:48.546Z,43.55
2023-03-03T18:09:13.628Z,44.10
2023-03-03T18:12:10.968Z,40.28
2023-03-03T18:15:20.412Z,47.13
2023-03-03T18:18:30.855Z,47.35
2023-03-03T18:21:21.181Z,48.20
2023-03-03T18:23:49.783Z,46.28
2023-03-03T18:26:40.561Z,46.20
2023-03-03T18:29:16.362Z,44.33
2023-03-03T18:31:53.895Z,48.70
2023-03-03T18:34:20.779Z,51.28
2023-03-03T18:37:40.420Z,52.22
2023-03-03T18:40:07.322Z,51.17
2023-03-03T18:42:42.704Z,53.38
2023-03-03T18:45:32.447Z,50.83
2023-03-03T18:48:12.156Z,50.58
2023-03-03T18:50:47.556Z,57.03
2023-03-03T18:53:19.251Z,57.45
2023-03-03T18:55:50.396Z,47.83
2023-03-03T18:58:17.535Z,53.95
2023-03-03T19:00:51.822Z,53.30
2023-03-03T19:03:36.491Z,56.17
2023-03-03T19:06:10.205Z,56.05
2023-03-03T19:08:57.838Z,54.95
2023-03-03T19:11:40.745Z,56.88
2023-03-03T19:14:34.294Z,50.25
2023-03-03T19:17:16.535Z,47.47
2023-03-03T19:20:15.380Z,56.03
2023-03-03T19:22:52.362Z,54.47
2023-03-03T19:25:28.201Z,56.33
2023-03-03T19:28:13.709Z,54.15
2023-03-03T19:30:53.025Z,52.72
2023-03-03T19:33:42.645Z,54.33
2023-03-03T19:36:50.891Z,53.95
2023-03-03T19:39:50.985Z,52.13
2023-03-03T19:42:47.589Z,46.53
2023-03-03T19:49:53.504Z,48.92
2023-03-03T19:53:02.196Z,57.40
2023-03-03T19:55:49.157Z,54.92
2023-03-03T19:58:55.661Z,49.83
2023-03-03T20:05:03.541Z,52.85
2023-03-03T20:08:01.226Z,51.60
2023-03-03T20:11:35.994Z,49.63
2023-03-03T20:14:22.553Z,47.45
2023-03-03T20:16:57.831Z,49.47
2023-03-03T20:19:37.602Z,53.78
2023-03-03T20:22:34.424Z,52.08
2023-03-03T20:25:10.666Z,56.90
2023-03-03T20:28:31.867Z,53.20
2023-03-03T20:31:44.212Z,51.72
2023-03-03T20:34:33.427Z,47.78
2023-03-03T20:37:30.542Z,47.50
2023-03-03T20:40:31.142Z,46.63
2023-03-03T20:43:42.157Z,48.97
2023-03-03T20:46:39.613Z,55.25
2023-03-03T20:49:34.567Z,49.20
2023-03-03T20:52:29.061Z,53.03
2023-03-03T20:55:14.556Z,47.90
2023-03-03T20:57:54.121Z,49.55
2023-03-03T21:00:38.797Z,48.97
2023-03-03T21:03:32.889Z,50.92
2023-03-03T21:06:09.438Z,51.35
2023-03-03T21:08:57.503Z,52.80
2023-03-03T21:11:30.405Z,55.15
2023-03-03T21:13:59.316Z,57.15
2023-03-03T21:16:26.352Z,53.85
2023-03-03T21:19:02.345Z,56.10
2023-03-03T21:21:39.104Z,50.83
2023-03-03T21:24:13.064Z,56.35
2023-03-03T21:26:55.410Z,57.80
2023-03-03T21:29:33.138Z,57.50
2023-03-03T21:32:03.679Z,61.58
2023-03-03T21:34:33.141Z,66.90
2023-03-03T21:37:04.399Z,69.43
2023-03-03T21:39:33.786Z,66.70
2023-03-03T21:42:11.069Z,66.43
2023-03-03T21:44:49.142Z,70.63
2023-03-03T21:47:19.910Z,78.65
2023-03-03T21:49:50.463Z,70.50
2023-03-03T21:52:21.671Z,68.95
2023-03-03T21:54:51.362Z,75.38
2023-03-03T21:57:19.232Z,65.88
2023-03-03T21:59:46.640Z,72.00
2023-03-03T22:02:13.744Z,70.88
2023-03-03T22:04:41.120Z,70.18
2023-03-03T22:07:09.580Z,72.97
2023-03-03T22:09:37.429Z,71.95
2023-03-03T22:12:05.887Z,64.53
2023-03-03T22:14:33.380Z,70.20
2023-03-03T22:17:00.214Z,75.72
2023-03-03T22:19:27.370Z,67.85
2023-03-03T22:21:54.273Z,79.90
2023-03-03T22:24:21.104Z,75.07
2023-03-03T22:26:48.134Z,67.47
2023-03-03T22:29:17.079Z,74.43
2023-03-03T22:31:43.964Z,75.80
2023-03-03T22:34:11.073Z,70.63
2023-03-03T22:36:38.038Z,73.47
2023-03-03T22:39:04.964Z,69.97
2023-03-03T22:41:37.939Z,66.22
2023-03-03T22:44:05.782Z,72.20
2023-03-03T22:46:32.898Z,73.90
2023-03-03T22:48:59.826Z,68.05
2023-03-03T22:51:26.736Z,66.07
2023-03-03T22:53:53.695Z,59.80
2023-03-03T22:56:20.609Z,59.78
2023-03-03T22:58:47.652Z,58.90
2023-03-03T23:01:14.528Z,53.33
2023-03-03T23:03:41.486Z,45.92
2023-03-03T23:06:08.416Z,58.00
2023-03-03T23:08:35.307Z,55.22
2023-03-03T23:11:02.837Z,52.45
2023-03-03T23:13:30.000Z,51.47
2023-03-03T23:16:00.061Z,52.90
2023-03-03T23:18:28.489Z,49.00
2023-03-03T23:20:56.994Z,44.33
2023-03-03T23:23:24.464Z,48.42
2023-03-03T23:25:51.380Z,48.45
2023-03-03T23:28:19.218Z,45.83
2023-03-03T23:30:46.531Z,52.47
2023-03-03T23:33:13.781Z,44.38
2023-03-03T23:35:41.181Z,50.65
2023-03-03T23:38:08.230Z,54.53
2023-03-03T23:40:35.129Z,47.15
2023-03-03T23:43:02.107Z,50.90
2023-03-03T23:45:28.965Z,51.55
2023-03-03T23:47:56.072Z,47.97
2023-03-03T23:50:22.943Z,46.85
2023-03-03T23:52:49.807Z,45.60
2023-03-03T23:55:16.858Z,44.38
2023-03-03T23:57:43.715Z,44.80
